createdAt,value
2017-12-30T00:01:22.990Z,98683.01
2017-12-30T00:03:50.599Z,98673.86
2017-12-30T00:06:18.383Z,98684.39
2017-12-30T00:08:45.997Z,98678.86
2017-12-30T00:11:13.562Z,98682.20
2017-12-30T00:13:41.112Z,98681.47
2017-12-30T00:16:08.710Z,98690.69
2017-12-30T00:18:36.274Z,98689.92
2017-12-30T00:21:03.963Z,98702.50
2017-12-30T00:23:31.707Z,98700.52
2017-12-30T00:25:59.270Z,98696.03
2017-12-30T00:28:26.934Z,98712.38
2017-12-30T00:30:54.523Z,98709.55
2017-12-30T00:33:22.380Z,98709.03
2017-12-30T00:35:49.937Z,98714.16
2017-12-30T00:38:17.594Z,98713.61
2017-12-30T00:40:45.234Z,98719.73
2017-12-30T00:43:12.786Z,98716.17
2017-12-30T00:45:40.423Z,98727.86
2017-12-30T00:48:07.978Z,98731.45
2017-12-30T00:50:35.587Z,98724.00
2017-12-30T00:53:03.139Z,98723.70
2017-12-30T00:55:30.704Z,98722.55
2017-12-30T00:57:58.519Z,98727.28
2017-12-30T01:00:26.074Z,98728.42
2017-12-30T01:02:53.794Z,98731.23
2017-12-30T01:05:21.612Z,98727.95
2017-12-30T01:07:49.221Z,98731.34
2017-12-30T01:10:16.834Z,98726.86
2017-12-30T01:12:44.453Z,98727.69
2017-12-30T01:15:12.076Z,98727.14
2017-12-30T01:17:39.642Z,98728.42
2017-12-30T01:20:07.202Z,98728.20
2017-12-30T01:22:34.836Z,98722.30
2017-12-30T01:25:02.394Z,98719.86
2017-12-30T01:27:29.965Z,98711.48
2017-12-30T01:29:57.546Z,98712.97
2017-12-30T01:32:25.110Z,98712.14
2017-12-30T01:34:53.027Z,98708.83
2017-12-30T01:37:20.587Z,98703.30
2017-12-30T01:39:48.363Z,98705.03
2017-12-30T01:42:15.945Z,98705.55
2017-12-30T01:44:43.699Z,98700.43
2017-12-30T01:47:11.490Z,98704.50
2017-12-30T01:49:39.074Z,98711.79
2017-12-30T01:52:06.630Z,98705.45
2017-12-30T01:54:34.202Z,98720.07
2017-12-30T01:57:01.991Z,98715.36
2017-12-30T01:59:29.807Z,98726.52
2017-12-30T02:01:57.382Z,98711.04
2017-12-30T02:04:25.043Z,98713.33
2017-12-30T02:06:52.761Z,98707.74
2017-12-30T02:09:20.323Z,98714.45
2017-12-30T02:11:47.946Z,98715.54
2017-12-30T02:14:15.506Z,98709.98
2017-12-30T02:16:43.233Z,98705.41
2017-12-30T02:19:10.814Z,98698.55
2017-12-30T02:21:38.542Z,98695.64
2017-12-30T02:24:06.394Z,98690.02
2017-12-30T02:26:34.013Z,98687.20
2017-12-30T02:29:01.567Z,98684.30
2017-12-30T02:31:29.134Z,98680.77
2017-12-30T02:33:56.858Z,98696.72
2017-12-30T02:36:24.678Z,98695.20
2017-12-30T02:38:52.225Z,98691.67
2017-12-30T02:41:19.788Z,98706.48
2017-12-30T02:43:47.349Z,98709.33
2017-12-30T02:46:14.909Z,98711.59
2017-12-30T02:48:42.530Z,98719.34
2017-12-30T02:51:10.077Z,98721.80
2017-12-30T02:53:37.633Z,98726.17
2017-12-30T02:56:05.419Z,98727.31
2017-12-30T02:58:32.978Z,98732.35
2017-12-30T03:01:00.594Z,98732.35
2017-12-30T03:03:28.342Z,98725.92
2017-12-30T03:05:55.882Z,98730.35
2017-12-30T03:08:23.633Z,98733.69
2017-12-30T03:10:51.186Z,98738.09
2017-12-30T03:13:18.832Z,98739.48
2017-12-30T03:15:46.405Z,98738.09
2017-12-30T03:18:14.181Z,98739.23
2017-12-30T03:20:41.899Z,98747.41
2017-12-30T03:23:09.556Z,98739.35
2017-12-30T03:25:37.187Z,98734.84
2017-12-30T03:28:04.740Z,98736.38
2017-12-30T03:30:32.301Z,98737.66
2017-12-30T03:32:59.933Z,98740.73
2017-12-30T03:35:27.492Z,98744.86
2017-12-30T03:37:55.325Z,98750.09
2017-12-30T03:40:23.010Z,98742.41
2017-12-30T03:42:50.573Z,98751.37
2017-12-30T03:45:18.287Z,98744.44
2017-12-30T03:47:45.842Z,98729.94
2017-12-30T03:50:13.617Z,98748.23
2017-12-30T03:52:41.173Z,98743.13
2017-12-30T03:55:08.909Z,98753.59
2017-12-30T03:57:36.669Z,98749.63
2017-12-30T04:00:04.298Z,98738.28
2017-12-30T04:02:32.056Z,98755.45
2017-12-30T04:04:59.605Z,98749.05
2017-12-30T04:07:27.153Z,98752.80
2017-12-30T04:09:54.725Z,98758.63
2017-12-30T04:12:22.281Z,98756.80
2017-12-30T04:14:49.900Z,98765.41
2017-12-30T04:17:17.712Z,98770.96
2017-12-30T04:19:45.272Z,98770.94
2017-12-30T04:22:12.848Z,98775.19
2017-12-30T04:24:40.409Z,98778.41
2017-12-30T04:27:08.029Z,98783.16
2017-12-30T04:29:35.582Z,98783.55
2017-12-30T04:32:03.137Z,98788.63
2017-12-30T04:34:30.940Z,98784.80
2017-12-30T04:36:58.633Z,98787.91
2017-12-30T04:39:26.473Z,98793.69
2017-12-30T04:41:54.036Z,98787.41
2017-12-30T04:44:21.810Z,98799.09
2017-12-30T04:46:49.629Z,98804.42
2017-12-30T04:49:17.322Z,98804.49
2017-12-30T04:51:45.133Z,98799.19
2017-12-30T04:54:12.847Z,98796.16
2017-12-30T04:56:40.394Z,98803.63
2017-12-30T04:59:08.120Z,98807.09
2017-12-30T05:01:35.680Z,98801.11
2017-12-30T05:04:03.297Z,98797.88
2017-12-30T05:06:30.872Z,98800.66
2017-12-30T05:08:58.434Z,98808.28
2017-12-30T05:11:26.039Z,98807.70
2017-12-30T05:13:53.826Z,98811.72
2017-12-30T05:16:21.450Z,98809.83
2017-12-30T05:18:48.988Z,98813.46
2017-12-30T05:21:16.779Z,98806.81
2017-12-30T05:23:44.379Z,98810.47
2017-12-30T05:26:11.942Z,98812.05
2017-12-30T05:28:39.547Z,98811.31
2017-12-30T05:31:07.251Z,98812.20
2017-12-30T05:33:34.822Z,98811.56
2017-12-30T05:36:02.518Z,98817.31
2017-12-30T05:38:30.188Z,98823.48
2017-12-30T05:40:58.024Z,98815.25
2017-12-30T05:43:25.581Z,98813.87
2017-12-30T05:45:53.141Z,98818.14
2017-12-30T05:48:20.758Z,98816.05
2017-12-30T05:50:48.495Z,98812.33
2017-12-30T05:53:16.117Z,98808.34
2017-12-30T05:55:43.928Z,98807.83
2017-12-30T05:58:11.492Z,98817.02
2017-12-30T06:00:39.062Z,98816.11
2017-12-30T06:03:06.785Z,98821.34
2017-12-30T06:05:34.567Z,98819.25
2017-12-30T06:08:02.190Z,98820.16
2017-12-30T06:10:29.727Z,98823.23
2017-12-30T06:12:57.301Z,98826.35
2017-12-30T06:15:24.857Z,98844.86
2017-12-30T06:17:52.694Z,98839.02
2017-12-30T06:20:20.249Z,98836.00
2017-12-30T06:22:47.806Z,98836.65
2017-12-30T06:25:15.547Z,98841.97
2017-12-30T06:27:43.201Z,98844.47
2017-12-30T06:30:11.084Z,98841.75
2017-12-30T06:32:38.634Z,98855.59
2017-12-30T06:35:06.253Z,98856.05
2017-12-30T06:37:33.822Z,98864.05
2017-12-30T06:40:01.657Z,98862.46
2017-12-30T06:42:29.474Z,98866.28
2017-12-30T06:44:57.028Z,98860.55
2017-12-30T06:47:24.810Z,98853.48
2017-12-30T06:49:52.628Z,98849.50
2017-12-30T06:52:20.350Z,98851.78
2017-12-30T06:54:48.266Z,98854.07
2017-12-30T06:57:15.984Z,98861.23
2017-12-30T06:59:43.694Z,98860.72
2017-12-30T07:02:11.489Z,98866.16
2017-12-30T07:04:39.042Z,98866.45
2017-12-30T07:07:06.677Z,98870.56
2017-12-30T07:09:34.242Z,98871.08
2017-12-30T07:12:01.794Z,98868.38
2017-12-30T07:14:29.611Z,98880.13
2017-12-30T07:16:57.328Z,98880.55
2017-12-30T07:19:25.146Z,98889.39
2017-12-30T07:21:52.705Z,98890.84
2017-12-30T07:24:20.483Z,98895.69
2017-12-30T07:26:48.094Z,98896.14
2017-12-30T07:29:15.819Z,98896.47
2017-12-30T07:31:43.579Z,98902.83
2017-12-30T07:34:11.135Z,98907.43
2017-12-30T07:36:38.698Z,98915.11
2017-12-30T07:39:06.252Z,98903.74
2017-12-30T07:41:33.801Z,98914.52
2017-12-30T07:44:01.713Z,98903.10
2017-12-30T07:46:29.321Z,98906.16
2017-12-30T07:48:57.129Z,98910.44
2017-12-30T07:51:24.882Z,98910.11
2017-12-30T07:53:52.478Z,98914.68
2017-12-30T07:56:20.103Z,98910.08
2017-12-30T07:58:47.727Z,98918.92
2017-12-30T08:01:15.453Z,98915.06
2017-12-30T08:03:43.049Z,98913.75
2017-12-30T08:06:10.601Z,98913.36
2017-12-30T08:08:38.217Z,98918.44
2017-12-30T08:11:05.806Z,98912.87
2017-12-30T08:13:33.358Z,98915.78
2017-12-30T08:16:00.938Z,98920.68
2017-12-30T08:18:28.497Z,98917.54
2017-12-30T08:20:56.187Z,98914.19
2017-12-30T08:23:23.751Z,98914.09
2017-12-30T08:25:51.532Z,98915.70
2017-12-30T08:28:19.106Z,98915.01
2017-12-30T08:30:46.670Z,98907.43
2017-12-30T08:33:14.486Z,98911.52
2017-12-30T08:35:42.042Z,98915.97
2017-12-30T08:38:09.822Z,98912.77
2017-12-30T08:40:37.420Z,98910.39
2017-12-30T08:43:05.045Z,98913.20
2017-12-30T08:45:32.767Z,98918.27
2017-12-30T08:48:00.506Z,98915.17
2017-12-30T08:50:28.076Z,98921.11
2017-12-30T08:52:55.730Z,98928.00
2017-12-30T08:55:23.278Z,98920.76
2017-12-30T08:57:50.866Z,98914.41
2017-12-30T09:00:18.583Z,98921.88
2017-12-30T09:02:46.142Z,98922.45
2017-12-30T09:05:13.686Z,98913.17
2017-12-30T09:07:41.228Z,98909.22
2017-12-30T09:10:08.833Z,98914.16
2017-12-30T09:12:36.386Z,98919.25
2017-12-30T09:15:04.190Z,98921.05
2017-12-30T09:17:31.882Z,98913.00
2017-12-30T09:19:59.627Z,98912.56
2017-12-30T09:22:27.238Z,98912.25
2017-12-30T09:24:54.804Z,98903.89
2017-12-30T09:27:22.358Z,98895.39
2017-12-30T09:29:49.918Z,98887.09
2017-12-30T09:32:17.717Z,98885.81
2017-12-30T09:34:45.538Z,98878.52
2017-12-30T09:37:13.089Z,98887.13
2017-12-30T09:39:40.652Z,98890.72
2017-12-30T09:42:08.262Z,98890.62
2017-12-30T09:44:35.846Z,98889.78
2017-12-30T09:47:03.474Z,98892.36
2017-12-30T09:49:31.162Z,98874.94
2017-12-30T09:51:58.722Z,98887.34
2017-12-30T09:54:26.453Z,98883.05
2017-12-30T09:56:54.166Z,98886.33
2017-12-30T09:59:21.807Z,98886.53
2017-12-30T10:01:49.362Z,98863.80
2017-12-30T10:04:17.041Z,98878.70
2017-12-30T10:06:44.732Z,98873.77
2017-12-30T10:09:12.587Z,98873.86
2017-12-30T10:11:40.405Z,98872.47
2017-12-30T10:14:08.036Z,98870.00
2017-12-30T10:16:35.590Z,98858.08
2017-12-30T10:19:03.211Z,98869.77
2017-12-30T10:21:30.818Z,98867.83
2017-12-30T10:23:58.437Z,98867.52
2017-12-30T10:26:25.994Z,98872.36
2017-12-30T10:28:53.702Z,98870.03
2017-12-30T10:31:21.262Z,98857.83
2017-12-30T10:33:48.825Z,98860.77
2017-12-30T10:36:16.475Z,98874.25
2017-12-30T10:38:44.034Z,98868.94
2017-12-30T10:41:11.783Z,98861.95
2017-12-30T10:43:39.379Z,98863.11
2017-12-30T10:46:07.036Z,98863.72
2017-12-30T10:48:34.880Z,98856.08
2017-12-30T10:51:02.444Z,98852.40
2017-12-30T10:53:30.102Z,98862.17
2017-12-30T10:55:57.690Z,98860.69
2017-12-30T10:58:25.262Z,98857.16
2017-12-30T11:00:58.832Z,98854.33
2017-12-30T11:03:26.389Z,98851.63
2017-12-30T11:05:54.011Z,98851.80
2017-12-30T11:08:21.577Z,98833.38
2017-12-30T11:10:49.355Z,98837.45
2017-12-30T11:13:16.977Z,98839.04
2017-12-30T11:15:44.529Z,98836.27
2017-12-30T11:18:12.309Z,98834.15
2017-12-30T11:20:39.878Z,98829.07
2017-12-30T11:23:07.629Z,98831.38
2017-12-30T11:25:35.278Z,98830.47
2017-12-30T11:28:02.849Z,98831.02
2017-12-30T11:30:30.599Z,98827.27
2017-12-30T11:32:58.215Z,98824.03
2017-12-30T11:35:25.747Z,98828.36
2017-12-30T11:37:53.363Z,98816.73
2017-12-30T11:40:20.930Z,98820.38
2017-12-30T11:42:48.585Z,98814.75
2017-12-30T11:45:16.407Z,98817.84
2017-12-30T11:47:44.017Z,98816.91
2017-12-30T11:50:11.843Z,98821.39
2017-12-30T11:52:39.453Z,98809.47
2017-12-30T11:55:07.019Z,98812.33
2017-12-30T11:57:34.711Z,98812.28
2017-12-30T12:00:02.281Z,98822.70
2017-12-30T12:02:29.914Z,98810.97
2017-12-30T12:04:57.609Z,98810.41
2017-12-30T12:07:26.272Z,98816.98
2017-12-30T12:09:53.859Z,98814.83
2017-12-30T12:12:21.609Z,98815.95
2017-12-30T12:14:49.226Z,98820.09
2017-12-30T12:17:17.045Z,98811.08
2017-12-30T12:19:44.653Z,98818.80
2017-12-30T12:22:12.330Z,98820.92
2017-12-30T12:24:39.999Z,98816.21
2017-12-30T12:27:07.645Z,98813.07
2017-12-30T12:29:35.237Z,98824.41
2017-12-30T12:32:02.953Z,98822.67
2017-12-30T12:34:30.565Z,98825.25
2017-12-30T12:36:58.133Z,98824.31
2017-12-30T12:39:25.909Z,98836.53
2017-12-30T12:41:53.725Z,98836.78
2017-12-30T12:44:21.301Z,98833.19
2017-12-30T12:46:48.884Z,98835.45
2017-12-30T12:49:16.453Z,98834.52
2017-12-30T12:51:44.082Z,98840.02
2017-12-30T12:54:11.785Z,98835.25
2017-12-30T12:56:39.499Z,98837.23
2017-12-30T12:59:07.152Z,98840.51
2017-12-30T13:01:34.777Z,98845.16
2017-12-30T13:04:02.691Z,98845.94
2017-12-30T13:06:30.246Z,98849.52
2017-12-30T13:08:58.026Z,98849.94
2017-12-30T13:11:25.602Z,98846.91
2017-12-30T13:13:53.162Z,98853.81
2017-12-30T13:16:20.978Z,98848.76
2017-12-30T13:18:48.540Z,98848.83
2017-12-30T13:21:16.287Z,98854.68
2017-12-30T13:23:43.893Z,98852.45
2017-12-30T13:26:12.187Z,98856.00
2017-12-30T13:28:39.814Z,98855.55
2017-12-30T13:31:07.406Z,98859.31
2017-12-30T13:33:35.047Z,98864.33
2017-12-30T13:36:02.651Z,98867.11
2017-12-30T13:38:30.232Z,98874.14
2017-12-30T13:40:57.844Z,98876.52
2017-12-30T13:43:25.558Z,98879.02
2017-12-30T13:45:53.396Z,98875.33
2017-12-30T13:48:21.215Z,98871.42
2017-12-30T13:50:48.823Z,98874.84
2017-12-30T13:53:16.523Z,98870.59
2017-12-30T13:55:44.095Z,98876.83
2017-12-30T13:58:11.886Z,98879.05
2017-12-30T14:00:39.454Z,98880.30
2017-12-30T14:03:07.189Z,98883.75
2017-12-30T14:05:34.749Z,98886.47
2017-12-30T14:08:02.313Z,98883.27
2017-12-30T14:10:30.041Z,98885.53
2017-12-30T14:12:57.625Z,98881.66
2017-12-30T14:15:25.415Z,98885.81
2017-12-30T14:17:52.995Z,98881.77
2017-12-30T14:20:20.666Z,98876.68
2017-12-30T14:22:48.470Z,98888.38
2017-12-30T14:25:16.020Z,98889.36
2017-12-30T14:27:43.689Z,98883.17
2017-12-30T14:30:11.261Z,98881.70
2017-12-30T14:32:39.040Z,98890.50
2017-12-30T14:35:06.662Z,98894.97
2017-12-30T14:37:34.213Z,98906.80
2017-12-30T14:40:01.788Z,98892.95
2017-12-30T14:42:29.612Z,98898.56
2017-12-30T14:44:57.206Z,98890.33
2017-12-30T14:47:24.835Z,98897.72
2017-12-30T14:49:52.401Z,98899.88
2017-12-30T14:52:19.968Z,98901.52
2017-12-30T14:54:47.588Z,98902.70
2017-12-30T14:57:15.174Z,98905.77
2017-12-30T14:59:42.862Z,98901.94
2017-12-30T15:02:10.431Z,98901.83
2017-12-30T15:04:38.013Z,98910.63
2017-12-30T15:07:05.601Z,98912.30
2017-12-30T15:09:33.412Z,98910.95
2017-12-30T15:12:01.030Z,98913.44
2017-12-30T15:14:28.614Z,98915.20
2017-12-30T15:16:56.259Z,98917.95
2017-12-30T15:19:23.835Z,98920.63
2017-12-30T15:21:51.599Z,98920.97
2017-12-30T15:24:19.216Z,98922.46
2017-12-30T15:26:46.781Z,98929.06
2017-12-30T15:29:14.453Z,98916.41
2017-12-30T15:31:59.426Z,98924.19
2017-12-30T15:34:27.079Z,98923.81
2017-12-30T15:36:54.728Z,98920.67
2017-12-30T15:39:22.302Z,98922.66
2017-12-30T15:41:49.980Z,98902.48
2017-12-30T15:44:17.611Z,98937.31
2017-12-30T15:46:45.185Z,98942.73
2017-12-30T15:49:12.806Z,98934.42
2017-12-30T15:51:40.386Z,98949.28
2017-12-30T15:54:08.002Z,98941.72
2017-12-30T15:56:35.561Z,98946.94
2017-12-30T15:59:03.121Z,98951.22
2017-12-30T16:01:30.690Z,98956.16
2017-12-30T16:03:58.261Z,98955.78
2017-12-30T16:06:25.927Z,98956.06
2017-12-30T16:08:53.498Z,98963.05
2017-12-30T16:11:21.220Z,98967.20
2017-12-30T16:13:49.037Z,98965.62
2017-12-30T16:16:16.645Z,98968.12
2017-12-30T16:18:44.266Z,98976.61
2017-12-30T16:21:11.846Z,98978.53
2017-12-30T16:23:39.420Z,98985.32
2017-12-30T16:26:07.226Z,98988.05
2017-12-30T16:28:34.847Z,98993.64
2017-12-30T16:31:02.488Z,99004.70
2017-12-30T16:33:30.280Z,99005.14
2017-12-30T16:35:57.971Z,99009.19
2017-12-30T16:38:25.549Z,99010.50
2017-12-30T16:40:53.091Z,99016.52
2017-12-30T16:43:20.730Z,99025.72
2017-12-30T16:45:48.293Z,99021.44
2017-12-30T16:48:15.990Z,99028.09
2017-12-30T16:50:43.559Z,99027.41
2017-12-30T16:53:11.117Z,99033.32
2017-12-30T16:55:38.943Z,99035.09
2017-12-30T16:58:06.574Z,99042.73
2017-12-30T17:00:34.158Z,99045.58
2017-12-30T17:03:01.816Z,99049.75
2017-12-30T17:05:29.436Z,99051.92
2017-12-30T17:07:57.148Z,99063.19
2017-12-30T17:10:24.741Z,99061.93
2017-12-30T17:12:52.377Z,99070.96
2017-12-30T17:15:19.975Z,99081.34
2017-12-30T17:17:47.606Z,99088.39
2017-12-30T17:20:15.211Z,99088.00
2017-12-30T17:22:42.804Z,99093.73
2017-12-30T17:25:10.422Z,99091.30
2017-12-30T17:27:38.003Z,99103.24
2017-12-30T17:30:05.585Z,99105.73
2017-12-30T17:32:33.209Z,99108.80
2017-12-30T17:35:00.785Z,99114.00
2017-12-30T17:37:28.607Z,99107.24
2017-12-30T17:39:56.518Z,99114.53
2017-12-30T17:42:24.156Z,99115.35
2017-12-30T17:44:52.003Z,99121.36
2017-12-30T17:47:19.634Z,99118.98
2017-12-30T17:49:47.197Z,99120.32
2017-12-30T17:52:14.957Z,99126.59
2017-12-30T17:54:42.560Z,99131.23
2017-12-30T17:57:10.205Z,99135.81
2017-12-30T17:59:37.781Z,99138.94
2017-12-30T18:02:05.393Z,99149.61
2017-12-30T18:04:33.147Z,99143.05
2017-12-30T18:07:00.714Z,99148.44
2017-12-30T18:12:02.873Z,99150.26
2017-12-30T18:14:30.433Z,99154.50
2017-12-30T18:16:57.997Z,99157.75
2017-12-30T18:19:25.781Z,99161.27
2017-12-30T18:21:53.375Z,99165.40
2017-12-30T18:24:21.019Z,99162.75
2017-12-30T18:26:48.593Z,99173.53
2017-12-30T18:29:16.158Z,99170.45
2017-12-30T18:31:43.863Z,99175.64
2017-12-30T18:34:11.478Z,99176.68
2017-12-30T18:36:39.096Z,99182.04
2017-12-30T18:39:06.721Z,99170.09
2017-12-30T18:41:34.443Z,99174.91
2017-12-30T18:44:02.259Z,99178.67
2017-12-30T18:46:29.817Z,99176.56
2017-12-30T18:48:57.486Z,99180.67
2017-12-30T18:51:25.108Z,99187.42
2017-12-30T18:53:52.682Z,99189.62
2017-12-30T18:56:20.255Z,99193.12
2017-12-30T18:58:47.858Z,99196.35
2017-12-30T19:01:15.476Z,99198.61
2017-12-30T19:03:43.170Z,99188.64
2017-12-30T19:06:11.212Z,99193.88
2017-12-30T19:08:38.850Z,99188.66
2017-12-30T19:11:06.413Z,99196.36
2017-12-30T19:13:34.027Z,99190.88
2017-12-30T19:16:01.574Z,99190.69
2017-12-30T19:18:29.157Z,99193.02
2017-12-30T19:20:56.748Z,99196.20
2017-12-30T19:23:24.313Z,99202.19
2017-12-30T19:25:52.065Z,99202.28
2017-12-30T19:28:19.786Z,99198.11
2017-12-30T19:30:47.501Z,99191.76
2017-12-30T19:33:15.066Z,99218.44
2017-12-30T19:35:42.632Z,99210.16
2017-12-30T19:38:10.272Z,99216.86
2017-12-30T19:40:37.837Z,99214.83
2017-12-30T19:43:05.490Z,99214.72
2017-12-30T19:45:33.174Z,99194.00
2017-12-30T19:48:00.770Z,99219.74
2017-12-30T19:50:28.389Z,99213.77
2017-12-30T19:52:56.163Z,99223.72
2017-12-30T19:55:23.696Z,99222.21
2017-12-30T19:57:51.261Z,99213.98
2017-12-30T20:00:18.826Z,99219.73
2017-12-30T20:02:46.516Z,99222.38
2017-12-30T20:05:14.074Z,99224.61
2017-12-30T20:07:41.638Z,99223.91
2017-12-30T20:10:09.388Z,99221.09
2017-12-30T20:12:36.950Z,99227.32
2017-12-30T20:15:04.609Z,99220.11
2017-12-30T20:17:32.332Z,99229.23
2017-12-30T20:19:59.893Z,99225.18
2017-12-30T20:22:27.569Z,99229.05
2017-12-30T20:24:55.125Z,99225.25
2017-12-30T20:27:22.810Z,99229.78
2017-12-30T20:29:50.369Z,99231.67
2017-12-30T20:32:17.929Z,99226.64
2017-12-30T20:34:45.559Z,99229.88
2017-12-30T20:37:13.124Z,99225.31
2017-12-30T20:39:40.735Z,99233.94
2017-12-30T20:42:08.334Z,99223.31
2017-12-30T20:44:36.057Z,99226.42
2017-12-30T20:47:03.838Z,99235.83
2017-12-30T20:49:31.393Z,99235.64
2017-12-30T20:51:59.005Z,99239.55
2017-12-30T20:54:26.730Z,99241.55
2017-12-30T20:56:55.126Z,99235.59
2017-12-30T20:59:22.698Z,99241.41
2017-12-30T21:01:50.263Z,99236.06
2017-12-30T21:04:17.865Z,99243.91
2017-12-30T21:06:45.422Z,99237.84
2017-12-30T21:09:13.140Z,99238.06
2017-12-30T21:11:40.718Z,99246.56
2017-12-30T21:14:08.314Z,99245.09
2017-12-30T21:16:35.994Z,99247.91
2017-12-30T21:19:03.570Z,99251.83
2017-12-30T21:21:31.212Z,99257.66
2017-12-30T21:23:58.819Z,99261.20
2017-12-30T21:26:26.438Z,99263.05
2017-12-30T21:28:54.110Z,99263.44
2017-12-30T21:31:21.666Z,99262.16
2017-12-30T21:33:49.211Z,99262.97
2017-12-30T21:36:17.020Z,99265.70
2017-12-30T21:38:44.604Z,99263.98
2017-12-30T21:41:12.218Z,99265.71
2017-12-30T21:43:39.786Z,99266.20
2017-12-30T21:46:07.590Z,99270.38
2017-12-30T21:48:35.409Z,99277.01
2017-12-30T21:51:02.973Z,99276.73
2017-12-30T21:53:30.591Z,99274.38
2017-12-30T21:55:58.221Z,99274.91
2017-12-30T21:58:25.882Z,99276.33
2017-12-30T22:00:53.446Z,99276.34
2017-12-30T22:03:21.066Z,99283.17
2017-12-30T22:05:48.755Z,99281.36
2017-12-30T22:08:16.320Z,99290.88
2017-12-30T22:10:43.880Z,99288.73
2017-12-30T22:13:11.454Z,99263.73
2017-12-30T22:15:39.026Z,99292.87
2017-12-30T22:18:06.645Z,99296.20
2017-12-30T22:20:34.197Z,99296.43
2017-12-30T22:23:01.965Z,99303.19
2017-12-30T22:25:29.529Z,99301.06
2017-12-30T22:27:57.151Z,99301.61
2017-12-30T22:30:24.858Z,99292.63
2017-12-30T22:32:52.413Z,99308.94
2017-12-30T22:35:20.028Z,99315.67
2017-12-30T22:37:47.626Z,99314.19
2017-12-30T22:40:15.188Z,99320.97
2017-12-30T22:42:42.806Z,99313.82
2017-12-30T22:45:10.430Z,99315.17
2017-12-30T22:47:37.990Z,99310.13
2017-12-30T22:50:05.759Z,99322.75
2017-12-30T22:52:33.368Z,99325.94
2017-12-30T22:55:01.031Z,99322.16
2017-12-30T22:57:28.782Z,99323.45
2017-12-30T22:59:56.354Z,99324.51
2017-12-30T23:02:23.917Z,99337.03
2017-12-30T23:04:51.469Z,99336.56
2017-12-30T23:07:19.131Z,99335.41
2017-12-30T23:09:46.681Z,99337.37
2017-12-30T23:12:14.280Z,99337.47
2017-12-30T23:14:41.843Z,99341.97
2017-12-30T23:17:09.397Z,99339.15
2017-12-30T23:19:37.019Z,99338.36
2017-12-30T23:22:04.581Z,99345.41
2017-12-30T23:24:32.145Z,99339.02
2017-12-30T23:26:59.710Z,99335.08
2017-12-30T23:29:27.282Z,99342.15
2017-12-30T23:31:54.955Z,99343.94
2017-12-30T23:34:22.518Z,99352.14
2017-12-30T23:36:50.077Z,99346.41
2017-12-30T23:39:17.650Z,99345.84
2017-12-30T23:41:45.266Z,99350.02
2017-12-30T23:44:12.895Z,99354.33
2017-12-30T23:46:40.450Z,99345.83
2017-12-30T23:49:08.096Z,99342.42
2017-12-30T23:51:35.750Z,99345.19
2017-12-30T23:54:03.312Z,99345.63
2017-12-30T23:56:30.985Z,99344.56
2017-12-30T23:58:58.720Z,99343.94
